Time,TemperatureF,DewpointF,PressureIn,WindDirection,WindDirectionDegrees,WindSpeedMPH,WindSpeedGustMPH,Humidity,HourlyPrecipIn,Conditions,Clouds,dailyrainin,SoftwareType,DateUTC
2013-03-22 00:00:00,31.0,6.6,29.60,NNW,338,4.0,11.0,35,0.00,,---,0.00,VWS V14.01,2013-03-22 04:00:00,
2013-03-22 00:30:00,30.9,6.5,29.60,NNW,338,5.0,13.0,35,0.00,,---,0.00,VWS V14.01,2013-03-22 04:30:00,
2013-03-22 01:00:00,30.4,6.0,29.61,NNW,338,6.0,15.0,35,0.00,,---,0.00,VWS V14.01,2013-03-22 05:00:00,
2013-03-22 01:30:00,30.1,5.8,29.62,NW,315,5.0,14.0,35,0.00,,---,0.00,VWS V14.01,2013-03-22 05:30:00,
2013-03-22 02:00:00,29.7,5.4,29.62,NNW,338,6.0,13.0,35,0.00,,---,0.00,VWS V14.01,2013-03-22 06:00:00,
2013-03-22 02:30:00,29.1,4.9,29.62,NW,315,5.0,14.0,35,0.00,,---,0.00,VWS V14.01,2013-03-22 06:30:00,
2013-03-22 03:00:00,28.7,4.5,29.61,NNW,338,4.0,12.0,35,0.00,,---,0.00,VWS V14.01,2013-03-22 07:00:00,
2013-03-22 03:30:00,28.2,4.1,29.61,NNW,338,4.0,10.0,35,0.00,,---,0.00,VWS V14.01,2013-03-22 07:30:00,
2013-03-22 04:00:00,27.9,3.8,29.61,NW,315,4.0,11.0,35,0.00,,---,0.00,VWS V14.01,2013-03-22 08:00:00,
2013-03-22 04:30:00,27.3,3.3,29.61,WNW,292,4.0,13.0,35,0.00,,---,0.00,VWS V14.01,2013-03-22 08:30:00,
2013-03-22 05:00:00,26.9,2.9,29.61,WNW,292,4.0,10.0,35,0.00,,---,0.00,VWS V14.01,2013-03-22 09:00:00,
2013-03-22 05:30:00,26.4,2.5,29.62,NW,315,3.0,7.0,35,0.00,,---,0.00,VWS V14.01,2013-03-22 09:30:00,
2013-03-22 06:00:00,26.3,3.0,29.62,WNW,292,3.0,6.0,36,0.00,,---,0.00,VWS V14.01,2013-03-22 10:00:00,
2013-03-22 06:30:00,26.0,2.7,29.64,NW,315,3.0,6.0,36,0.00,,---,0.00,VWS V14.01,2013-03-22 10:30:00,
2013-03-22 07:00:00,25.7,2.5,29.65,WNW,292,2.0,5.0,36,0.00,,---,0.00,VWS V14.01,2013-03-22 11:00:00,
2013-03-22 07:30:00,25.8,2.5,29.65,WNW,292,1.0,4.0,36,0.00,,---,0.00,VWS V14.01,2013-03-22 11:30:00,
2013-03-22 08:00:00,26.7,3.3,29.67,NW,315,1.0,3.0,36,0.00,,---,0.00,VWS V14.01,2013-03-22 12:00:00,
2013-03-22 08:30:00,28.2,4.7,29.67,NW,315,3.0,9.0,36,0.00,,---,0.00,VWS V14.01,2013-03-22 12:30:00,
2013-03-22 09:00:00,29.5,5.2,29.68,WNW,292,4.0,11.0,35,0.00,,---,0.00,VWS V14.01,2013-03-22 13:00:00,
2013-03-22 09:30:00,31.0,6.6,29.68,NW,315,5.0,14.0,35,0.00,,---,0.00,VWS V14.01,2013-03-22 13:30:00,
2013-03-22 10:00:00,32.4,7.8,29.68,NW,315,5.0,16.0,35,0.00,,---,0.00,VWS V14.01,2013-03-22 14:00:00,
2013-03-22 10:30:00,33.8,9.1,29.68,NNW,338,6.0,13.0,35,0.00,,---,0.00,VWS V14.01,2013-03-22 14:30:00,
2013-03-22 11:00:00,34.6,9.8,29.68,NW,315,7.0,18.0,35,0.00,,---,0.00,VWS V14.01,2013-03-22 15:00:00,
2013-03-22 11:30:00,36.9,11.8,29.68,NNW,338,5.0,14.0,35,0.00,,---,0.00,VWS V14.01,2013-03-22 15:30:00,
2013-03-22 12:00:00,37.0,11.9,29.67,NW,315,6.0,17.0,35,0.00,,---,0.00,VWS V14.01,2013-03-22 16:00:00,
2013-03-22 12:30:00,36.9,11.8,29.67,WNW,292,7.0,15.0,35,0.00,,---,0.00,VWS V14.01,2013-03-22 16:30:00,
2013-03-22 13:00:00,37.5,12.4,29.67,NW,315,5.0,15.0,35,0.00,,---,0.00,VWS V14.01,2013-03-22 17:00:00,
2013-03-22 13:30:00,37.9,12.1,29.66,WNW,292,6.0,14.0,34,0.00,,---,0.00,VWS V14.01,2013-03-22 17:30:00,
2013-03-22 14:00:00,39.1,13.1,29.66,WNW,292,8.0,21.0,34,0.00,,---,0.00,VWS V14.01,2013-03-22 18:00:00,
2013-03-22 14:30:00,39.5,13.5,29.64,NW,315,7.0,15.0,34,0.00,,---,0.00,VWS V14.01,2013-03-22 18:30:00,
2013-03-22 15:00:00,40.1,14.0,29.65,WNW,292,7.0,19.0,34,0.00,,---,0.00,VWS V14.01,2013-03-22 19:00:00,
2013-03-22 15:30:00,40.6,14.4,29.65,West,270,8.0,21.0,34,0.00,,---,0.00,VWS V14.01,2013-03-22 19:30:00,
2013-03-22 16:00:00,40.3,14.2,29.65,WNW,292,9.0,19.0,34,0.00,,---,0.00,VWS V14.01,2013-03-22 20:00:00,
2013-03-22 16:30:00,39.6,13.6,29.66,WNW,292,8.0,19.0,34,0.00,,---,0.00,VWS V14.01,2013-03-22 20:30:00,
2013-03-22 17:18:00,39.5,13.5,29.66,WNW,293,10.0,10.0,34,0.00,,---,0.00,VWS V14.01,2013-03-22 21:18:00,
2013-03-22 17:23:00,39.3,13.3,29.66,NW,325,7.0,12.0,34,0.00,,---,0.00,VWS V14.01,2013-03-22 21:23:00,
2013-03-22 17:28:00,39.3,13.3,29.66,NW,318,6.0,13.0,34,0.00,,---,0.00,VWS V14.01,2013-03-22 21:28:00,
2013-03-22 17:30:00,39.3,13.3,29.66,WNW,286,4.0,13.0,34,0.00,,---,0.00,VWS V14.01,2013-03-22 21:30:00,
2013-03-22 17:33:00,39.2,13.2,29.66,NW,309,4.0,17.0,34,0.00,,---,0.00,VWS V14.01,2013-03-22 21:33:00,
2013-03-22 17:38:00,39.2,13.2,29.66,West,266,11.0,17.0,34,0.00,,---,0.00,VWS V14.01,2013-03-22 21:38:00,
2013-03-22 17:43:00,39.2,13.2,29.66,West,268,4.0,17.0,34,0.00,,---,0.00,VWS V14.01,2013-03-22 21:43:00,
2013-03-22 17:48:00,39.2,13.2,29.66,WNW,286,5.0,17.0,34,0.00,,---,0.00,VWS V14.01,2013-03-22 21:48:00,
2013-03-22 17:53:00,39.2,13.2,29.66,West,277,6.0,17.0,34,0.00,,---,0.00,VWS V14.01,2013-03-22 21:53:00,
2013-03-22 17:58:00,39.3,13.3,29.66,WNW,289,5.0,17.0,34,0.00,,---,0.00,VWS V14.01,2013-03-22 21:58:00,
2013-03-22 18:00:00,39.3,13.3,29.67,WNW,297,13.0,17.0,34,0.00,,---,0.00,VWS V14.01,2013-03-22 22:00:00,
2013-03-22 18:03:00,39.3,13.3,29.67,WNW,283,7.0,13.0,34,0.00,,---,0.00,VWS V14.01,2013-03-22 22:03:00,
2013-03-22 18:08:00,39.5,13.5,29.67,WSW,250,5.0,14.0,34,0.00,,---,0.00,VWS V14.01,2013-03-22 22:08:00,
2013-03-22 18:13:00,39.5,13.5,29.67,WNW,290,11.0,18.0,34,0.00,,---,0.00,VWS V14.01,2013-03-22 22:13:00,
2013-03-22 18:18:00,39.2,13.2,29.67,WNW,296,10.0,18.0,34,0.00,,---,0.00,VWS V14.01,2013-03-22 22:18:00,
2013-03-22 18:23:00,39.1,13.1,29.67,WNW,288,4.0,18.0,34,0.00,,---,0.00,VWS V14.01,2013-03-22 22:23:00,
2013-03-22 18:28:00,38.8,12.9,29.67,West,267,14.0,18.0,34,0.00,,---,0.00,VWS V14.01,2013-03-22 22:28:00,
2013-03-22 18:30:00,38.6,12.7,29.68,WNW,283,4.0,18.0,34,0.00,,---,0.00,VWS V14.01,2013-03-22 22:30:00,
2013-03-22 18:33:00,38.6,13.3,29.68,WNW,282,5.0,9.0,35,0.00,,---,0.00,VWS V14.01,2013-03-22 22:33:00,
2013-03-22 18:39:00,38.3,13.1,29.68,WNW,285,4.0,11.0,35,0.00,,---,0.00,VWS V14.01,2013-03-22 22:39:00,
2013-03-22 18:44:00,38.3,13.1,29.68,West,274,7.0,11.0,35,0.00,,---,0.00,VWS V14.01,2013-03-22 22:44:00,
2013-03-22 18:49:00,38.2,13.0,29.69,WSW,247,7.0,11.0,35,0.00,,---,0.00,VWS V14.01,2013-03-22 22:49:00,
2013-03-22 18:54:00,37.9,12.7,29.69,WNW,290,4.0,11.0,35,0.00,,---,0.00,VWS V14.01,2013-03-22 22:54:00,
2013-03-22 18:59:00,37.6,12.4,29.69,West,278,7.0,14.0,35,0.00,,---,0.00,VWS V14.01,2013-03-22 22:59:00,
2013-03-22 19:00:00,37.6,12.4,29.69,NNW,341,7.0,18.0,35,0.00,,---,0.00,VWS V14.01,2013-03-22 23:00:00,
2013-03-22 19:04:00,37.6,12.4,29.69,NNW,332,5.0,12.0,35,0.00,,---,0.00,VWS V14.01,2013-03-22 23:04:00,
2013-03-22 19:09:00,37.5,12.4,29.69,NW,304,3.0,12.0,35,0.00,,---,0.00,VWS V14.01,2013-03-22 23:09:00,
2013-03-22 19:14:00,37.5,12.4,29.69,West,269,3.0,12.0,35,0.00,,---,0.00,VWS V14.01,2013-03-22 23:14:00,
2013-03-22 19:19:00,37.5,12.4,29.70,WNW,288,7.0,12.0,35,0.00,,---,0.00,VWS V14.01,2013-03-22 23:19:00,
2013-03-22 19:24:00,37.3,12.2,29.70,NW,320,3.0,12.0,35,0.00,,---,0.00,VWS V14.01,2013-03-22 23:24:00,
2013-03-22 19:29:00,37.2,12.1,29.70,WNW,303,3.0,14.0,35,0.00,,---,0.00,VWS V14.01,2013-03-22 23:29:00,
2013-03-22 19:30:00,37.2,12.1,29.70,WNW,296,5.0,14.0,35,0.00,,---,0.00,VWS V14.01,2013-03-22 23:30:00,
2013-03-22 19:34:00,37.2,12.1,29.70,West,274,3.0,11.0,35,0.00,,---,0.00,VWS V14.01,2013-03-22 23:34:00,
2013-03-22 19:39:00,37.0,11.9,29.70,West,281,3.0,11.0,35,0.00,,---,0.00,VWS V14.01,2013-03-22 23:39:00,
2013-03-22 19:44:00,37.0,11.9,29.70,WNW,283,5.0,11.0,35,0.00,,---,0.00,VWS V14.01,2013-03-22 23:44:00,
2013-03-22 19:49:00,36.9,11.8,29.71,NW,314,3.0,11.0,35,0.00,,---,0.00,VWS V14.01,2013-03-22 23:49:00,
2013-03-22 19:54:00,36.9,11.8,29.71,West,274,3.0,11.0,35,0.00,,---,0.00,VWS V14.01,2013-03-22 23:54:00,
2013-03-22 19:59:00,36.8,11.7,29.71,NW,321,4.0,11.0,35,0.00,,---,0.00,VWS V14.01,2013-03-22 23:59:00,
2013-03-22 20:00:00,36.6,11.6,29.71,WNW,289,3.0,11.0,35,0.00,,---,0.00,VWS V14.01,2013-03-23 00:00:00,
2013-03-22 20:04:00,36.6,11.6,29.71,WSW,253,2.0,6.0,35,0.00,,---,0.00,VWS V14.01,2013-03-23 00:04:00,
2013-03-22 20:09:00,36.6,11.6,29.71,West,276,2.0,12.0,35,0.00,,---,0.00,VWS V14.01,2013-03-23 00:09:00,
2013-03-22 20:14:00,36.5,11.5,29.71,WNW,289,5.0,12.0,35,0.00,,---,0.00,VWS V14.01,2013-03-23 00:14:00,
2013-03-22 20:19:00,36.5,11.5,29.72,WNW,293,3.0,12.0,35,0.00,,---,0.00,VWS V14.01,2013-03-23 00:19:00,
2013-03-22 20:24:00,36.5,11.5,29.72,NW,304,4.0,12.0,35,0.00,,---,0.00,VWS V14.01,2013-03-23 00:24:00,
2013-03-22 20:29:00,36.5,11.5,29.72,West,274,5.0,13.0,35,0.00,,---,0.00,VWS V14.01,2013-03-23 00:29:00,
2013-03-22 20:30:00,36.5,11.5,29.72,WNW,290,4.0,13.0,35,0.00,,---,0.00,VWS V14.01,2013-03-23 00:30:00,
2013-03-22 20:34:00,36.5,11.5,29.72,NW,306,6.0,10.0,35,0.00,,---,0.00,VWS V14.01,2013-03-23 00:34:00,
2013-03-22 20:39:00,36.3,11.3,29.72,West,272,5.0,10.0,35,0.00,,---,0.00,VWS V14.01,2013-03-23 00:39:00,
2013-03-22 20:44:00,36.2,11.2,29.72,WNW,292,5.0,10.0,35,0.00,,---,0.00,VWS V14.01,2013-03-23 00:44:00,
2013-03-22 20:49:00,36.2,11.2,29.73,WNW,295,5.0,10.0,35,0.00,,---,0.00,VWS V14.01,2013-03-23 00:49:00,
2013-03-22 20:54:00,36.3,11.3,29.73,WNW,297,1.0,10.0,35,0.00,,---,0.00,VWS V14.01,2013-03-23 00:54:00,
2013-03-22 20:59:00,36.3,11.3,29.73,West,278,5.0,11.0,35,0.00,,---,0.00,VWS V14.01,2013-03-23 00:59:00,
2013-03-22 21:00:00,36.3,11.3,29.73,NNW,338,3.0,11.0,35,0.00,,---,0.00,VWS V14.01,2013-03-23 01:00:00,
2013-03-22 21:04:00,36.3,11.9,29.73,NW,309,6.0,10.0,36,0.00,,---,0.00,VWS V14.01,2013-03-23 01:04:00,
2013-03-22 21:09:00,36.3,11.3,29.73,WNW,295,4.0,10.0,35,0.00,,---,0.00,VWS V14.01,2013-03-23 01:09:00,
2013-03-22 21:14:00,36.3,11.3,29.73,WNW,283,5.0,11.0,35,0.00,,---,0.00,VWS V14.01,2013-03-23 01:14:00,
2013-03-22 21:19:00,36.5,11.5,29.73,WNW,285,4.0,11.0,35,0.00,,---,0.00,VWS V14.01,2013-03-23 01:19:00,
2013-03-22 21:24:00,36.3,11.3,29.73,WNW,283,4.0,11.0,35,0.00,,---,0.00,VWS V14.01,2013-03-23 01:24:00,
2013-03-22 21:29:00,36.2,11.2,29.73,WNW,301,5.0,11.0,35,0.00,,---,0.00,VWS V14.01,2013-03-23 01:29:00,
2013-03-22 21:30:00,36.0,11.0,29.74,WNW,297,11.0,11.0,35,0.00,,---,0.00,VWS V14.01,2013-03-23 01:30:00,
2013-03-22 21:34:00,36.2,11.2,29.74,WNW,286,1.0,13.0,35,0.00,,---,0.00,VWS V14.01,2013-03-23 01:34:00,
2013-03-22 21:39:00,36.2,11.2,29.74,NW,318,2.0,13.0,35,0.00,,---,0.00,VWS V14.01,2013-03-23 01:39:00,
2013-03-22 21:44:00,36.0,11.0,29.74,NW,307,3.0,13.0,35,0.00,,---,0.00,VWS V14.01,2013-03-23 01:44:00,
2013-03-22 21:49:00,36.0,11.6,29.74,WNW,301,3.0,13.0,36,0.00,,---,0.00,VWS V14.01,2013-03-23 01:49:00,
2013-03-22 21:54:00,35.9,11.6,29.74,WNW,301,0.0,13.0,36,0.00,,---,0.00,VWS V14.01,2013-03-23 01:54:00,
2013-03-22 21:59:00,35.8,11.5,29.74,WNW,287,4.0,13.0,36,0.00,,---,0.00,VWS V14.01,2013-03-23 01:59:00,
2013-03-22 22:00:00,35.8,11.5,29.74,West,281,4.0,13.0,36,0.00,,---,0.00,VWS V14.01,2013-03-23 02:00:00,
2013-03-22 22:04:00,35.8,11.5,29.74,NW,312,5.0,6.0,36,0.00,,---,0.00,VWS V14.01,2013-03-23 02:04:00,
2013-03-22 22:09:00,35.6,11.3,29.74,West,271,4.0,6.0,36,0.00,,---,0.00,VWS V14.01,2013-03-23 02:09:00,
2013-03-22 22:14:00,35.5,11.2,29.74,WNW,302,4.0,6.0,36,0.00,,---,0.00,VWS V14.01,2013-03-23 02:14:00,
2013-03-22 22:19:00,35.3,11.0,29.75,WNW,295,1.0,10.0,36,0.00,,---,0.00,VWS V14.01,2013-03-23 02:19:00,
2013-03-22 22:24:00,35.0,10.8,29.75,WNW,295,2.0,10.0,36,0.00,,---,0.00,VWS V14.01,2013-03-23 02:24:00,
2013-03-22 22:29:00,34.9,10.7,29.75,NW,314,1.0,10.0,36,0.00,,---,0.00,VWS V14.01,2013-03-23 02:29:00,
2013-03-22 22:30:00,34.9,10.7,29.75,NW,313,2.0,10.0,36,0.00,,---,0.00,VWS V14.01,2013-03-23 02:30:00,
2013-03-22 22:34:00,34.7,10.5,29.75,WNW,300,2.0,6.0,36,0.00,,---,0.00,VWS V14.01,2013-03-23 02:34:00,
2013-03-22 22:39:00,34.4,10.2,29.75,NW,311,1.0,6.0,36,0.00,,---,0.00,VWS V14.01,2013-03-23 02:39:00,
2013-03-22 22:44:00,34.3,10.1,29.75,NW,311,4.0,6.0,36,0.00,,---,0.00,VWS V14.01,2013-03-23 02:44:00,
2013-03-22 22:49:00,34.3,10.1,29.75,NW,309,1.0,6.0,36,0.00,,---,0.00,VWS V14.01,2013-03-23 02:49:00,
2013-03-22 22:54:00,34.1,10.0,29.75,NW,309,0.0,6.0,36,0.00,,---,0.00,VWS V14.01,2013-03-23 02:54:00,
2013-03-22 22:59:00,34.0,9.9,29.75,NW,309,1.0,6.0,36,0.00,,---,0.00,VWS V14.01,2013-03-23 02:59:00,
2013-03-22 23:00:00,33.8,9.7,29.74,NW,309,2.0,6.0,36,0.00,,---,0.00,VWS V14.01,2013-03-23 03:00:00,
2013-03-22 23:04:00,33.7,9.6,29.74,NW,309,0.0,2.0,36,0.00,,---,0.00,VWS V14.01,2013-03-23 03:04:00,
2013-03-22 23:09:00,33.5,9.4,29.74,NW,309,1.0,2.0,36,0.00,,---,0.00,VWS V14.01,2013-03-23 03:09:00,
2013-03-22 23:14:00,33.2,9.1,29.74,NW,309,0.0,2.0,36,0.00,,---,0.00,VWS V14.01,2013-03-23 03:14:00,
2013-03-22 23:19:00,32.9,8.9,29.74,NW,309,0.0,3.0,36,0.00,,---,0.00,VWS V14.01,2013-03-23 03:19:00,
2013-03-22 23:24:00,32.4,8.4,29.74,NW,309,0.0,3.0,36,0.00,,---,0.00,VWS V14.01,2013-03-23 03:24:00,
2013-03-22 23:29:00,31.9,8.6,29.74,NW,309,0.0,3.0,37,0.00,,---,0.00,VWS V14.01,2013-03-23 03:29:00,
2013-03-22 23:30:00,31.8,8.5,29.75,NW,309,1.0,3.0,37,0.00,,---,0.00,VWS V14.01,2013-03-23 03:30:00,
2013-03-22 23:34:00,31.5,8.2,29.75,NW,309,1.0,3.0,37,0.00,,---,0.00,VWS V14.01,2013-03-23 03:34:00,
2013-03-22 23:39:00,31.0,7.8,29.75,NW,309,1.0,3.0,37,0.00,,---,0.00,VWS V14.01,2013-03-23 03:39:00,
2013-03-22 23:44:00,30.7,7.5,29.75,NW,309,1.0,3.0,37,0.00,,---,0.00,VWS V14.01,2013-03-23 03:44:00,
2013-03-22 23:49:00,30.1,7.0,29.75,NW,309,3.0,3.0,37,0.00,,---,0.00,VWS V14.01,2013-03-23 03:49:00,
2013-03-22 23:54:00,29.7,6.6,29.75,NW,309,2.0,3.0,37,0.00,,---,0.00,VWS V14.01,2013-03-23 03:54:00,
2013-03-22 23:59:00,29.4,6.4,29.75,NW,309,1.0,3.0,37,0.00,,---,0.00,VWS V14.01,2013-03-23 03:59:00,